sensor_id;sensor_type;location;lat;lon;timestamp;P1;durP1;ratioP1;P2;durP2;ratioP2
82302;SDS011;71912;47.442;18.898;2023-07-31T07:54:03;5.60;;;1.90;;
82302;SDS011;71912;47.442;18.898;2023-07-31T07:56:29;5.07;;;2.50;;
82302;SDS011;71912;47.442;18.898;2023-07-31T07:58:54;3.83;;;2.20;;
82302;SDS011;71912;47.442;18.898;2023-07-31T08:01:19;3.30;;;1.45;;
82302;SDS011;71912;47.442;18.898;2023-07-31T08:03:46;3.20;;;1.67;;
82302;SDS011;71912;47.442;18.898;2023-07-31T08:06:12;2.60;;;1.55;;
82302;SDS011;71912;47.442;18.898;2023-07-31T08:08:38;2.88;;;1.95;;
82302;SDS011;71912;47.442;18.898;2023-07-31T08:11:03;7.35;;;2.05;;
82302;SDS011;71912;47.442;18.898;2023-07-31T08:13:29;3.45;;;1.90;;
82302;SDS011;71912;47.442;18.898;2023-07-31T08:15:54;3.45;;;1.88;;
82302;SDS011;71912;47.442;18.898;2023-07-31T08:18:20;3.75;;;1.77;;
82302;SDS011;71912;47.442;18.898;2023-07-31T08:20:45;3.70;;;1.70;;
82302;SDS011;71912;47.442;18.898;2023-07-31T08:23:11;4.50;;;1.67;;
82302;SDS011;71912;47.442;18.898;2023-07-31T08:25:36;6.43;;;2.58;;
82302;SDS011;71912;47.442;18.898;2023-07-31T08:28:02;5.65;;;1.75;;
82302;SDS011;71912;47.442;18.898;2023-07-31T08:30:28;5.00;;;2.05;;
82302;SDS011;71912;47.442;18.898;2023-07-31T08:32:53;4.13;;;2.53;;
82302;SDS011;71912;47.442;18.898;2023-07-31T08:35:19;3.72;;;1.98;;
82302;SDS011;71912;47.442;18.898;2023-07-31T08:37:44;3.90;;;2.63;;
82302;SDS011;71912;47.442;18.898;2023-07-31T08:40:09;3.22;;;2.22;;
82302;SDS011;71912;47.442;18.898;2023-07-31T08:42:42;3.70;;;1.92;;
82302;SDS011;71912;47.442;18.898;2023-07-31T08:45:08;5.40;;;2.17;;
82302;SDS011;71912;47.442;18.898;2023-07-31T08:47:35;3.50;;;2.10;;
82302;SDS011;71912;47.442;18.898;2023-07-31T08:50:01;4.70;;;2.13;;
82302;SDS011;71912;47.442;18.898;2023-07-31T08:52:27;3.20;;;1.92;;
82302;SDS011;71912;47.442;18.898;2023-07-31T08:54:53;3.58;;;1.95;;
82302;SDS011;71912;47.442;18.898;2023-07-31T08:57:18;3.55;;;1.73;;
82302;SDS011;71912;47.442;18.898;2023-07-31T08:59:44;4.68;;;1.70;;
82302;SDS011;71912;47.442;18.898;2023-07-31T09:02:10;3.08;;;2.00;;
82302;SDS011;71912;47.442;18.898;2023-07-31T09:04:36;4.25;;;2.00;;
82302;SDS011;71912;47.442;18.898;2023-07-31T09:07:03;3.17;;;2.15;;
82302;SDS011;71912;47.442;18.898;2023-07-31T09:09:30;4.32;;;2.28;;
82302;SDS011;71912;47.442;18.898;2023-07-31T09:11:57;4.70;;;1.75;;
82302;SDS011;71912;47.442;18.898;2023-07-31T09:14:24;3.00;;;1.80;;
82302;SDS011;71912;47.442;18.898;2023-07-31T09:16:57;3.28;;;1.85;;
82302;SDS011;71912;47.442;18.898;2023-07-31T09:19:29;3.70;;;1.80;;
82302;SDS011;71912;47.442;18.898;2023-07-31T09:21:59;4.95;;;1.90;;
82302;SDS011;71912;47.442;18.898;2023-07-31T09:24:27;3.22;;;1.50;;
82302;SDS011;71912;47.442;18.898;2023-07-31T09:26:57;3.00;;;1.50;;
82302;SDS011;71912;47.442;18.898;2023-07-31T09:29:24;4.13;;;1.48;;
82302;SDS011;71912;47.442;18.898;2023-07-31T09:31:51;3.88;;;1.90;;
82302;SDS011;71912;47.442;18.898;2023-07-31T09:34:17;2.78;;;1.85;;
82302;SDS011;71912;47.442;18.898;2023-07-31T09:36:44;2.60;;;1.40;;
82302;SDS011;71912;47.442;18.898;2023-07-31T09:39:10;5.60;;;2.15;;
82302;SDS011;71912;47.442;18.898;2023-07-31T09:41:37;6.28;;;2.58;;
82302;SDS011;71912;47.442;18.898;2023-07-31T09:44:04;2.78;;;1.52;;
82302;SDS011;71912;47.442;18.898;2023-07-31T09:46:29;5.45;;;2.40;;
82302;SDS011;71912;47.442;18.898;2023-07-31T09:49:08;4.47;;;2.08;;
82302;SDS011;71912;47.442;18.898;2023-07-31T09:51:34;3.70;;;2.05;;
82302;SDS011;71912;47.442;18.898;2023-07-31T09:54:03;3.78;;;1.88;;
82302;SDS011;71912;47.442;18.898;2023-07-31T09:56:43;5.35;;;1.88;;
82302;SDS011;71912;47.442;18.898;2023-07-31T09:59:10;3.83;;;1.45;;
82302;SDS011;71912;47.442;18.898;2023-07-31T10:01:42;4.28;;;1.58;;
82302;SDS011;71912;47.442;18.898;2023-07-31T10:04:09;3.67;;;1.50;;
82302;SDS011;71912;47.442;18.898;2023-07-31T10:06:36;3.33;;;1.80;;
82302;SDS011;71912;47.442;18.898;2023-07-31T10:09:02;3.22;;;1.58;;
82302;SDS011;71912;47.442;18.898;2023-07-31T10:11:37;3.65;;;1.90;;
82302;SDS011;71912;47.442;18.898;2023-07-31T10:14:05;2.65;;;1.58;;
82302;SDS011;71912;47.442;18.898;2023-07-31T10:16:32;3.47;;;1.50;;
82302;SDS011;71912;47.442;18.898;2023-07-31T10:18:58;3.42;;;1.80;;
82302;SDS011;71912;47.442;18.898;2023-07-31T10:21:24;2.67;;;1.50;;
82302;SDS011;71912;47.442;18.898;2023-07-31T10:23:50;3.35;;;1.60;;
82302;SDS011;71912;47.442;18.898;2023-07-31T10:26:16;3.00;;;1.70;;
82302;SDS011;71912;47.442;18.898;2023-07-31T10:28:43;3.85;;;1.52;;
82302;SDS011;71912;47.442;18.898;2023-07-31T10:31:11;4.53;;;1.88;;
82302;SDS011;71912;47.442;18.898;2023-07-31T10:33:38;3.78;;;1.90;;
82302;SDS011;71912;47.442;18.898;2023-07-31T10:38:09;3.78;;;1.80;;
82302;SDS011;71912;47.442;18.898;2023-07-31T10:40:36;4.60;;;1.65;;
82302;SDS011;71912;47.442;18.898;2023-07-31T10:43:02;3.42;;;2.03;;
82302;SDS011;71912;47.442;18.898;2023-07-31T10:45:32;5.95;;;2.65;;
82302;SDS011;71912;47.442;18.898;2023-07-31T10:50:52;2.38;;;1.20;;
82302;SDS011;71912;47.442;18.898;2023-07-31T10:53:29;3.55;;;1.40;;
82302;SDS011;71912;47.442;18.898;2023-07-31T10:55:58;2.58;;;1.52;;
82302;SDS011;71912;47.442;18.898;2023-07-31T10:58:31;3.58;;;1.67;;
82302;SDS011;71912;47.442;18.898;2023-07-31T11:00:57;4.95;;;1.60;;
82302;SDS011;71912;47.442;18.898;2023-07-31T11:03:25;4.30;;;1.90;;
82302;SDS011;71912;47.442;18.898;2023-07-31T11:08:26;5.88;;;1.52;;
82302;SDS011;71912;47.442;18.898;2023-07-31T11:13:28;3.00;;;1.70;;
82302;SDS011;71912;47.442;18.898;2023-07-31T11:15:54;4.15;;;1.50;;
82302;SDS011;71912;47.442;18.898;2023-07-31T11:18:19;3.55;;;1.52;;
82302;SDS011;71912;47.442;18.898;2023-07-31T11:20:44;2.20;;;1.20;;
82302;SDS011;71912;47.442;18.898;2023-07-31T11:23:10;2.60;;;1.30;;
82302;SDS011;71912;47.442;18.898;2023-07-31T11:25:36;2.63;;;1.35;;
82302;SDS011;71912;47.442;18.898;2023-07-31T11:28:06;7.55;;;1.90;;
82302;SDS011;71912;47.442;18.898;2023-07-31T11:30:36;3.70;;;1.10;;
82302;SDS011;71912;47.442;18.898;2023-07-31T11:33:02;3.53;;;1.73;;
82302;SDS011;71912;47.442;18.898;2023-07-31T11:35:30;3.45;;;1.50;;
82302;SDS011;71912;47.442;18.898;2023-07-31T11:37:56;2.88;;;1.50;;
82302;SDS011;71912;47.442;18.898;2023-07-31T11:40:21;3.13;;;1.30;;
82302;SDS011;71912;47.442;18.898;2023-07-31T11:42:47;3.00;;;1.63;;
82302;SDS011;71912;47.442;18.898;2023-07-31T11:45:12;3.55;;;1.40;;
82302;SDS011;71912;47.442;18.898;2023-07-31T11:47:37;4.10;;;1.42;;
82302;SDS011;71912;47.442;18.898;2023-07-31T11:50:03;3.00;;;1.38;;
82302;SDS011;71912;47.442;18.898;2023-07-31T11:52:31;3.95;;;1.40;;
82302;SDS011;71912;47.442;18.898;2023-07-31T11:54:59;4.03;;;1.35;;
82302;SDS011;71912;47.442;18.898;2023-07-31T11:57:25;3.15;;;1.70;;
82302;SDS011;71912;47.442;18.898;2023-07-31T11:59:50;4.50;;;1.60;;
82302;SDS011;71912;47.442;18.898;2023-07-31T12:02:17;5.97;;;1.80;;
82302;SDS011;71912;47.442;18.898;2023-07-31T12:04:43;2.83;;;1.42;;
82302;SDS011;71912;47.442;18.898;2023-07-31T12:07:08;2.42;;;1.40;;
82302;SDS011;71912;47.442;18.898;2023-07-31T12:09:34;3.85;;;1.50;;
82302;SDS011;71912;47.442;18.898;2023-07-31T12:11:59;3.00;;;1.70;;
82302;SDS011;71912;47.442;18.898;2023-07-31T12:14:25;4.35;;;1.40;;
82302;SDS011;71912;47.442;18.898;2023-07-31T12:17:15;3.35;;;1.52;;
82302;SDS011;71912;47.442;18.898;2023-07-31T12:19:39;4.35;;;1.60;;
82302;SDS011;71912;47.442;18.898;2023-07-31T12:22:14;4.55;;;1.58;;
82302;SDS011;71912;47.442;18.898;2023-07-31T12:24:42;3.70;;;1.52;;
82302;SDS011;71912;47.442;18.898;2023-07-31T12:27:11;2.22;;;1.20;;
82302;SDS011;71912;47.442;18.898;2023-07-31T12:29:38;4.30;;;1.42;;
82302;SDS011;71912;47.442;18.898;2023-07-31T12:32:04;4.95;;;1.80;;
82302;SDS011;71912;47.442;18.898;2023-07-31T12:34:43;4.13;;;1.77;;
82302;SDS011;71912;47.442;18.898;2023-07-31T12:37:08;3.72;;;1.50;;
82302;SDS011;71912;47.442;18.898;2023-07-31T12:39:34;3.95;;;1.67;;
82302;SDS011;71912;47.442;18.898;2023-07-31T12:41:59;5.43;;;1.50;;
82302;SDS011;71912;47.442;18.898;2023-07-31T12:44:24;2.70;;;1.30;;
82302;SDS011;71912;47.442;18.898;2023-07-31T12:46:50;7.28;;;1.80;;
82302;SDS011;71912;47.442;18.898;2023-07-31T12:49:15;3.88;;;2.10;;
82302;SDS011;71912;47.442;18.898;2023-07-31T12:51:40;2.95;;;1.42;;
82302;SDS011;71912;47.442;18.898;2023-07-31T12:54:05;3.78;;;1.50;;
82302;SDS011;71912;47.442;18.898;2023-07-31T12:56:31;4.10;;;1.73;;
82302;SDS011;71912;47.442;18.898;2023-07-31T12:58:56;4.15;;;1.42;;
82302;SDS011;71912;47.442;18.898;2023-07-31T13:01:21;3.38;;;1.60;;
82302;SDS011;71912;47.442;18.898;2023-07-31T13:03:47;3.72;;;1.67;;
82302;SDS011;71912;47.442;18.898;2023-07-31T13:06:12;3.67;;;1.65;;
82302;SDS011;71912;47.442;18.898;2023-07-31T13:08:38;2.92;;;1.40;;
82302;SDS011;71912;47.442;18.898;2023-07-31T13:11:03;4.18;;;1.90;;
82302;SDS011;71912;47.442;18.898;2023-07-31T13:13:29;4.20;;;1.42;;
82302;SDS011;71912;47.442;18.898;2023-07-31T13:15:55;4.65;;;2.08;;
82302;SDS011;71912;47.442;18.898;2023-07-31T13:18:20;3.10;;;1.55;;
82302;SDS011;71912;47.442;18.898;2023-07-31T13:20:46;4.03;;;1.70;;
82302;SDS011;71912;47.442;18.898;2023-07-31T13:23:11;4.25;;;1.73;;
82302;SDS011;71912;47.442;18.898;2023-07-31T13:25:36;3.95;;;1.83;;
82302;SDS011;71912;47.442;18.898;2023-07-31T13:28:01;3.65;;;1.70;;
82302;SDS011;71912;47.442;18.898;2023-07-31T13:30:27;3.67;;;1.58;;
82302;SDS011;71912;47.442;18.898;2023-07-31T13:32:52;4.20;;;1.67;;
82302;SDS011;71912;47.442;18.898;2023-07-31T13:35:18;5.07;;;1.73;;
82302;SDS011;71912;47.442;18.898;2023-07-31T13:37:43;3.28;;;1.60;;
82302;SDS011;71912;47.442;18.898;2023-07-31T13:40:09;3.30;;;2.00;;
82302;SDS011;71912;47.442;18.898;2023-07-31T13:42:34;4.18;;;1.50;;
82302;SDS011;71912;47.442;18.898;2023-07-31T13:45:00;2.30;;;1.33;;
82302;SDS011;71912;47.442;18.898;2023-07-31T13:47:25;4.53;;;1.40;;
82302;SDS011;71912;47.442;18.898;2023-07-31T13:49:50;3.22;;;1.45;;
82302;SDS011;71912;47.442;18.898;2023-07-31T13:52:16;3.60;;;1.40;;
82302;SDS011;71912;47.442;18.898;2023-07-31T13:54:41;5.20;;;1.63;;
82302;SDS011;71912;47.442;18.898;2023-07-31T13:57:08;4.22;;;1.73;;
82302;SDS011;71912;47.442;18.898;2023-07-31T13:59:33;3.67;;;1.60;;
82302;SDS011;71912;47.442;18.898;2023-07-31T14:01:58;2.67;;;1.33;;
82302;SDS011;71912;47.442;18.898;2023-07-31T14:04:24;4.05;;;1.83;;
82302;SDS011;71912;47.442;18.898;2023-07-31T14:06:49;4.03;;;1.58;;
82302;SDS011;71912;47.442;18.898;2023-07-31T14:09:15;5.15;;;1.50;;
82302;SDS011;71912;47.442;18.898;2023-07-31T14:11:40;4.95;;;1.80;;
82302;SDS011;71912;47.442;18.898;2023-07-31T14:14:06;3.97;;;1.50;;
82302;SDS011;71912;47.442;18.898;2023-07-31T14:16:31;4.38;;;1.80;;
82302;SDS011;71912;47.442;18.898;2023-07-31T14:18:57;3.55;;;1.75;;
82302;SDS011;71912;47.442;18.898;2023-07-31T14:21:24;5.05;;;1.63;;
82302;SDS011;71912;47.442;18.898;2023-07-31T14:23:50;5.72;;;1.83;;
82302;SDS011;71912;47.442;18.898;2023-07-31T14:26:15;2.55;;;1.38;;
82302;SDS011;71912;47.442;18.898;2023-07-31T14:28:41;4.32;;;1.60;;
82302;SDS011;71912;47.442;18.898;2023-07-31T14:31:06;4.35;;;1.70;;
82302;SDS011;71912;47.442;18.898;2023-07-31T14:33:32;3.15;;;1.45;;
82302;SDS011;71912;47.442;18.898;2023-07-31T14:35:57;3.85;;;1.40;;
82302;SDS011;71912;47.442;18.898;2023-07-31T14:38:22;3.88;;;1.77;;
82302;SDS011;71912;47.442;18.898;2023-07-31T14:40:48;3.47;;;1.40;;
82302;SDS011;71912;47.442;18.898;2023-07-31T14:43:13;3.25;;;1.67;;
82302;SDS011;71912;47.442;18.898;2023-07-31T14:45:38;4.13;;;1.52;;
82302;SDS011;71912;47.442;18.898;2023-07-31T14:48:04;2.85;;;1.20;;
82302;SDS011;71912;47.442;18.898;2023-07-31T14:50:29;4.45;;;1.67;;
82302;SDS011;71912;47.442;18.898;2023-07-31T14:52:54;4.43;;;1.98;;
82302;SDS011;71912;47.442;18.898;2023-07-31T14:55:20;2.25;;;1.35;;
82302;SDS011;71912;47.442;18.898;2023-07-31T14:57:45;2.67;;;1.63;;
82302;SDS011;71912;47.442;18.898;2023-07-31T15:00:11;3.33;;;1.67;;
82302;SDS011;71912;47.442;18.898;2023-07-31T15:02:37;2.90;;;1.40;;
82302;SDS011;71912;47.442;18.898;2023-07-31T15:05:03;4.57;;;1.63;;
82302;SDS011;71912;47.442;18.898;2023-07-31T15:07:29;3.38;;;1.60;;
82302;SDS011;71912;47.442;18.898;2023-07-31T15:09:54;4.45;;;1.65;;
82302;SDS011;71912;47.442;18.898;2023-07-31T15:12:19;2.15;;;1.23;;
82302;SDS011;71912;47.442;18.898;2023-07-31T15:14:45;4.20;;;1.50;;
82302;SDS011;71912;47.442;18.898;2023-07-31T15:17:11;4.30;;;1.58;;
82302;SDS011;71912;47.442;18.898;2023-07-31T15:19:36;3.67;;;1.52;;
82302;SDS011;71912;47.442;18.898;2023-07-31T15:22:03;2.90;;;1.27;;
82302;SDS011;71912;47.442;18.898;2023-07-31T15:24:28;4.60;;;1.90;;
82302;SDS011;71912;47.442;18.898;2023-07-31T15:26:54;3.97;;;1.40;;
82302;SDS011;71912;47.442;18.898;2023-07-31T15:29:20;4.28;;;1.60;;
82302;SDS011;71912;47.442;18.898;2023-07-31T15:31:45;3.50;;;1.40;;
82302;SDS011;71912;47.442;18.898;2023-07-31T15:34:12;3.28;;;1.50;;
82302;SDS011;71912;47.442;18.898;2023-07-31T15:36:38;3.28;;;1.30;;
82302;SDS011;71912;47.442;18.898;2023-07-31T15:39:03;3.88;;;1.90;;
82302;SDS011;71912;47.442;18.898;2023-07-31T15:41:28;3.55;;;1.65;;
82302;SDS011;71912;47.442;18.898;2023-07-31T15:43:54;3.38;;;1.65;;
82302;SDS011;71912;47.442;18.898;2023-07-31T15:46:20;3.15;;;1.30;;
82302;SDS011;71912;47.442;18.898;2023-07-31T15:48:45;3.38;;;2.13;;
82302;SDS011;71912;47.442;18.898;2023-07-31T15:51:10;4.38;;;1.50;;
82302;SDS011;71912;47.442;18.898;2023-07-31T15:53:36;3.47;;;1.63;;
82302;SDS011;71912;47.442;18.898;2023-07-31T15:56:01;2.72;;;1.50;;
82302;SDS011;71912;47.442;18.898;2023-07-31T15:58:26;3.78;;;1.80;;
82302;SDS011;71912;47.442;18.898;2023-07-31T16:00:52;4.63;;;1.42;;
82302;SDS011;71912;47.442;18.898;2023-07-31T16:03:18;3.03;;;1.27;;
82302;SDS011;71912;47.442;18.898;2023-07-31T16:05:44;3.92;;;1.77;;
82302;SDS011;71912;47.442;18.898;2023-07-31T16:08:09;4.70;;;1.90;;
82302;SDS011;71912;47.442;18.898;2023-07-31T16:10:35;3.83;;;1.30;;
82302;SDS011;71912;47.442;18.898;2023-07-31T16:13:00;3.72;;;1.45;;
82302;SDS011;71912;47.442;18.898;2023-07-31T16:15:25;3.60;;;1.80;;
82302;SDS011;71912;47.442;18.898;2023-07-31T16:17:51;3.88;;;1.30;;
82302;SDS011;71912;47.442;18.898;2023-07-31T16:20:16;3.13;;;1.67;;
82302;SDS011;71912;47.442;18.898;2023-07-31T16:22:42;2.97;;;1.77;;
82302;SDS011;71912;47.442;18.898;2023-07-31T16:25:09;4.00;;;2.00;;
82302;SDS011;71912;47.442;18.898;2023-07-31T16:27:35;3.13;;;1.63;;
82302;SDS011;71912;47.442;18.898;2023-07-31T16:30:00;5.13;;;1.58;;
82302;SDS011;71912;47.442;18.898;2023-07-31T16:32:26;4.88;;;1.80;;
82302;SDS011;71912;47.442;18.898;2023-07-31T16:34:55;4.30;;;1.60;;
82302;SDS011;71912;47.442;18.898;2023-07-31T16:37:20;3.55;;;1.30;;
82302;SDS011;71912;47.442;18.898;2023-07-31T16:39:46;3.53;;;1.80;;
82302;SDS011;71912;47.442;18.898;2023-07-31T16:42:16;3.95;;;1.30;;
82302;SDS011;71912;47.442;18.898;2023-07-31T16:44:42;2.97;;;1.50;;
82302;SDS011;71912;47.442;18.898;2023-07-31T16:47:08;4.10;;;1.30;;
82302;SDS011;71912;47.442;18.898;2023-07-31T16:49:33;3.65;;;1.38;;
82302;SDS011;71912;47.442;18.898;2023-07-31T16:51:59;4.00;;;1.70;;
82302;SDS011;71912;47.442;18.898;2023-07-31T16:54:24;5.68;;;2.10;;
82302;SDS011;71912;47.442;18.898;2023-07-31T16:56:49;3.78;;;2.03;;
82302;SDS011;71912;47.442;18.898;2023-07-31T16:59:15;3.08;;;1.60;;
82302;SDS011;71912;47.442;18.898;2023-07-31T17:01:42;3.13;;;1.40;;
82302;SDS011;71912;47.442;18.898;2023-07-31T17:04:07;3.85;;;1.45;;
82302;SDS011;71912;47.442;18.898;2023-07-31T17:06:32;4.65;;;1.50;;
82302;SDS011;71912;47.442;18.898;2023-07-31T17:08:58;6.57;;;2.95;;
82302;SDS011;71912;47.442;18.898;2023-07-31T17:11:23;3.28;;;1.90;;
82302;SDS011;71912;47.442;18.898;2023-07-31T17:13:48;4.10;;;1.65;;
82302;SDS011;71912;47.442;18.898;2023-07-31T17:16:14;3.60;;;1.30;;
82302;SDS011;71912;47.442;18.898;2023-07-31T17:18:39;6.47;;;1.80;;
82302;SDS011;71912;47.442;18.898;2023-07-31T17:21:04;3.53;;;1.60;;
82302;SDS011;71912;47.442;18.898;2023-07-31T17:23:30;3.08;;;1.55;;
82302;SDS011;71912;47.442;18.898;2023-07-31T17:25:55;2.23;;;1.23;;
82302;SDS011;71912;47.442;18.898;2023-07-31T17:28:20;4.03;;;1.50;;
82302;SDS011;71912;47.442;18.898;2023-07-31T17:30:47;4.57;;;1.80;;
82302;SDS011;71912;47.442;18.898;2023-07-31T17:33:13;7.10;;;1.40;;
82302;SDS011;71912;47.442;18.898;2023-07-31T17:35:39;4.20;;;1.17;;
82302;SDS011;71912;47.442;18.898;2023-07-31T17:38:04;3.47;;;1.48;;
82302;SDS011;71912;47.442;18.898;2023-07-31T17:40:29;3.83;;;1.70;;
82302;SDS011;71912;47.442;18.898;2023-07-31T17:42:55;3.25;;;1.27;;
82302;SDS011;71912;47.442;18.898;2023-07-31T17:45:20;4.63;;;1.50;;
82302;SDS011;71912;47.442;18.898;2023-07-31T17:47:46;4.25;;;1.83;;
82302;SDS011;71912;47.442;18.898;2023-07-31T17:50:11;2.35;;;1.20;;
82302;SDS011;71912;47.442;18.898;2023-07-31T17:52:37;3.78;;;1.85;;
82302;SDS011;71912;47.442;18.898;2023-07-31T17:55:02;4.75;;;1.30;;
82302;SDS011;71912;47.442;18.898;2023-07-31T17:57:27;4.43;;;1.42;;
82302;SDS011;71912;47.442;18.898;2023-07-31T17:59:53;4.47;;;2.20;;
82302;SDS011;71912;47.442;18.898;2023-07-31T18:02:18;3.58;;;1.50;;
82302;SDS011;71912;47.442;18.898;2023-07-31T18:04:44;4.00;;;1.80;;
82302;SDS011;71912;47.442;18.898;2023-07-31T18:07:09;3.28;;;1.63;;
82302;SDS011;71912;47.442;18.898;2023-07-31T18:09:35;4.60;;;2.13;;
82302;SDS011;71912;47.442;18.898;2023-07-31T18:12:00;4.18;;;1.55;;
82302;SDS011;71912;47.442;18.898;2023-07-31T18:14:25;3.05;;;1.77;;
82302;SDS011;71912;47.442;18.898;2023-07-31T18:16:53;2.90;;;1.48;;
82302;SDS011;71912;47.442;18.898;2023-07-31T18:19:18;4.55;;;1.60;;
82302;SDS011;71912;47.442;18.898;2023-07-31T18:21:43;7.70;;;1.77;;
82302;SDS011;71912;47.442;18.898;2023-07-31T18:24:09;3.80;;;1.40;;
82302;SDS011;71912;47.442;18.898;2023-07-31T18:26:34;2.88;;;1.50;;
82302;SDS011;71912;47.442;18.898;2023-07-31T18:29:01;3.42;;;1.30;;
82302;SDS011;71912;47.442;18.898;2023-07-31T18:31:26;3.42;;;2.00;;
82302;SDS011;71912;47.442;18.898;2023-07-31T18:33:52;2.65;;;1.63;;
82302;SDS011;71912;47.442;18.898;2023-07-31T18:36:17;3.78;;;1.60;;
82302;SDS011;71912;47.442;18.898;2023-07-31T18:38:42;3.85;;;2.05;;
82302;SDS011;71912;47.442;18.898;2023-07-31T18:41:08;3.80;;;2.42;;
82302;SDS011;71912;47.442;18.898;2023-07-31T18:43:33;3.72;;;2.33;;
82302;SDS011;71912;47.442;18.898;2023-07-31T18:45:59;5.82;;;2.83;;
82302;SDS011;71912;47.442;18.898;2023-07-31T18:48:24;6.43;;;3.08;;
82302;SDS011;71912;47.442;18.898;2023-07-31T18:50:50;5.45;;;2.00;;
82302;SDS011;71912;47.442;18.898;2023-07-31T18:53:16;3.70;;;2.13;;
82302;SDS011;71912;47.442;18.898;2023-07-31T18:55:42;6.80;;;2.53;;
82302;SDS011;71912;47.442;18.898;2023-07-31T18:58:08;3.47;;;1.50;;
82302;SDS011;71912;47.442;18.898;2023-07-31T19:00:34;5.00;;;1.98;;
82302;SDS011;71912;47.442;18.898;2023-07-31T19:02:59;3.15;;;1.50;;
82302;SDS011;71912;47.442;18.898;2023-07-31T19:05:24;2.55;;;1.55;;
82302;SDS011;71912;47.442;18.898;2023-07-31T19:07:49;3.85;;;1.73;;
82302;SDS011;71912;47.442;18.898;2023-07-31T19:10:15;3.72;;;1.60;;
82302;SDS011;71912;47.442;18.898;2023-07-31T19:12:41;4.85;;;2.10;;
82302;SDS011;71912;47.442;18.898;2023-07-31T19:15:07;3.53;;;1.90;;
82302;SDS011;71912;47.442;18.898;2023-07-31T19:17:34;4.30;;;1.67;;
82302;SDS011;71912;47.442;18.898;2023-07-31T19:20:01;2.90;;;1.88;;
82302;SDS011;71912;47.442;18.898;2023-07-31T19:22:26;4.47;;;1.55;;
82302;SDS011;71912;47.442;18.898;2023-07-31T19:24:51;4.10;;;1.67;;
82302;SDS011;71912;47.442;18.898;2023-07-31T19:27:17;4.18;;;1.73;;
82302;SDS011;71912;47.442;18.898;2023-07-31T19:29:42;6.97;;;2.08;;
82302;SDS011;71912;47.442;18.898;2023-07-31T19:32:07;5.18;;;2.30;;
82302;SDS011;71912;47.442;18.898;2023-07-31T19:34:32;4.18;;;2.40;;
82302;SDS011;71912;47.442;18.898;2023-07-31T19:36:58;4.00;;;1.85;;
82302;SDS011;71912;47.442;18.898;2023-07-31T19:39:23;4.65;;;1.70;;
82302;SDS011;71912;47.442;18.898;2023-07-31T19:41:48;3.28;;;2.05;;
82302;SDS011;71912;47.442;18.898;2023-07-31T19:44:14;4.40;;;2.17;;
82302;SDS011;71912;47.442;18.898;2023-07-31T19:46:39;4.03;;;2.17;;
82302;SDS011;71912;47.442;18.898;2023-07-31T19:49:04;3.53;;;2.28;;
82302;SDS011;71912;47.442;18.898;2023-07-31T19:51:30;5.32;;;2.35;;
82302;SDS011;71912;47.442;18.898;2023-07-31T19:53:55;3.80;;;1.92;;
82302;SDS011;71912;47.442;18.898;2023-07-31T19:56:21;3.75;;;2.20;;
82302;SDS011;71912;47.442;18.898;2023-07-31T19:58:46;4.55;;;2.13;;
82302;SDS011;71912;47.442;18.898;2023-07-31T20:01:11;3.90;;;1.90;;
82302;SDS011;71912;47.442;18.898;2023-07-31T20:03:36;4.38;;;2.33;;
82302;SDS011;71912;47.442;18.898;2023-07-31T20:06:02;4.70;;;2.00;;
82302;SDS011;71912;47.442;18.898;2023-07-31T20:08:27;6.38;;;3.00;;
82302;SDS011;71912;47.442;18.898;2023-07-31T20:10:52;5.32;;;3.00;;
82302;SDS011;71912;47.442;18.898;2023-07-31T20:13:18;7.35;;;3.33;;
82302;SDS011;71912;47.442;18.898;2023-07-31T20:15:43;5.53;;;2.33;;
82302;SDS011;71912;47.442;18.898;2023-07-31T20:18:10;4.60;;;2.97;;
82302;SDS011;71912;47.442;18.898;2023-07-31T20:20:35;3.78;;;2.38;;
82302;SDS011;71912;47.442;18.898;2023-07-31T20:23:00;5.20;;;2.53;;
82302;SDS011;71912;47.442;18.898;2023-07-31T20:25:25;6.30;;;2.53;;
82302;SDS011;71912;47.442;18.898;2023-07-31T20:27:51;4.15;;;2.50;;
82302;SDS011;71912;47.442;18.898;2023-07-31T20:30:16;5.50;;;2.45;;
82302;SDS011;71912;47.442;18.898;2023-07-31T20:32:41;5.18;;;2.42;;
82302;SDS011;71912;47.442;18.898;2023-07-31T20:35:07;4.45;;;2.00;;
82302;SDS011;71912;47.442;18.898;2023-07-31T20:37:32;4.45;;;2.60;;
82302;SDS011;71912;47.442;18.898;2023-07-31T20:39:58;4.57;;;2.42;;
82302;SDS011;71912;47.442;18.898;2023-07-31T20:42:27;4.18;;;2.97;;
82302;SDS011;71912;47.442;18.898;2023-07-31T20:44:53;4.30;;;2.47;;
82302;SDS011;71912;47.442;18.898;2023-07-31T20:47:19;6.00;;;2.20;;
82302;SDS011;71912;47.442;18.898;2023-07-31T20:49:44;4.43;;;2.22;;
82302;SDS011;71912;47.442;18.898;2023-07-31T20:52:09;4.15;;;2.33;;
82302;SDS011;71912;47.442;18.898;2023-07-31T20:54:35;8.73;;;2.50;;
82302;SDS011;71912;47.442;18.898;2023-07-31T20:57:00;4.93;;;2.50;;
82302;SDS011;71912;47.442;18.898;2023-07-31T20:59:25;4.28;;;2.35;;
82302;SDS011;71912;47.442;18.898;2023-07-31T21:01:51;6.13;;;2.65;;
82302;SDS011;71912;47.442;18.898;2023-07-31T21:04:16;8.32;;;2.28;;
82302;SDS011;71912;47.442;18.898;2023-07-31T21:06:41;4.68;;;2.35;;
82302;SDS011;71912;47.442;18.898;2023-07-31T21:09:06;5.50;;;3.28;;
82302;SDS011;71912;47.442;18.898;2023-07-31T21:11:32;3.75;;;2.30;;
82302;SDS011;71912;47.442;18.898;2023-07-31T21:13:58;6.15;;;2.97;;
82302;SDS011;71912;47.442;18.898;2023-07-31T21:16:23;4.25;;;1.95;;
82302;SDS011;71912;47.442;18.898;2023-07-31T21:18:49;10.15;;;2.30;;
82302;SDS011;71912;47.442;18.898;2023-07-31T21:21:15;4.13;;;2.25;;
82302;SDS011;71912;47.442;18.898;2023-07-31T21:23:41;4.47;;;2.10;;
82302;SDS011;71912;47.442;18.898;2023-07-31T21:26:06;5.22;;;2.35;;
82302;SDS011;71912;47.442;18.898;2023-07-31T21:28:31;6.22;;;2.40;;
82302;SDS011;71912;47.442;18.898;2023-07-31T21:30:56;4.65;;;2.08;;
82302;SDS011;71912;47.442;18.898;2023-07-31T21:33:23;4.47;;;2.30;;
82302;SDS011;71912;47.442;18.898;2023-07-31T21:35:50;4.20;;;2.97;;
82302;SDS011;71912;47.442;18.898;2023-07-31T21:38:15;7.00;;;2.67;;
82302;SDS011;71912;47.442;18.898;2023-07-31T21:40:40;6.05;;;2.53;;
82302;SDS011;71912;47.442;18.898;2023-07-31T21:43:06;3.90;;;2.40;;
82302;SDS011;71912;47.442;18.898;2023-07-31T21:45:31;4.75;;;2.50;;
82302;SDS011;71912;47.442;18.898;2023-07-31T21:47:56;4.38;;;2.13;;
82302;SDS011;71912;47.442;18.898;2023-07-31T21:50:22;5.03;;;2.08;;
82302;SDS011;71912;47.442;18.898;2023-07-31T21:52:47;5.68;;;3.47;;
82302;SDS011;71912;47.442;18.898;2023-07-31T21:55:12;5.88;;;2.60;;
82302;SDS011;71912;47.442;18.898;2023-07-31T21:57:38;3.42;;;2.10;;
82302;SDS011;71912;47.442;18.898;2023-07-31T22:00:04;5.03;;;2.50;;
82302;SDS011;71912;47.442;18.898;2023-07-31T22:02:30;4.60;;;2.60;;
82302;SDS011;71912;47.442;18.898;2023-07-31T22:04:56;3.60;;;2.20;;
82302;SDS011;71912;47.442;18.898;2023-07-31T22:07:21;4.10;;;2.40;;
82302;SDS011;71912;47.442;18.898;2023-07-31T22:09:46;5.03;;;3.10;;
82302;SDS011;71912;47.442;18.898;2023-07-31T22:12:12;7.38;;;2.40;;
82302;SDS011;71912;47.442;18.898;2023-07-31T22:14:37;4.82;;;3.03;;
82302;SDS011;71912;47.442;18.898;2023-07-31T22:17:02;4.70;;;2.20;;
82302;SDS011;71912;47.442;18.898;2023-07-31T22:19:28;4.60;;;2.40;;
82302;SDS011;71912;47.442;18.898;2023-07-31T22:21:53;4.88;;;2.33;;
82302;SDS011;71912;47.442;18.898;2023-07-31T22:24:18;5.43;;;2.35;;
82302;SDS011;71912;47.442;18.898;2023-07-31T22:26:43;4.85;;;2.17;;
82302;SDS011;71912;47.442;18.898;2023-07-31T22:29:12;4.07;;;2.20;;